Time;durP1;ratioP1;P1;durP2;ratioP2;P2;SDS_P1;SDS_P2;PMS_P1;PMS_P2;Temp;Humidity;BMP_temperature;BMP_pressure;BME280_temperature;BME280_humidity;BME280_pressure;Samples;Min_cycle;Max_cycle;Signal;HPM_P1;HPM_P2
2022/09/25 04:01:24;;;;;;;17.23;8.10;;;13.10;99.90;;;;;;5501358;23;20533;-69
2022/09/25 04:03:51;;;;;;;9.03;6.37;;;13.10;99.90;;;;;;4971633;28;20474;-68
2022/09/25 04:06:21;;;;;;;13.17;7.17;;;13.10;99.90;;;;;;4975727;28;20489;-69
2022/09/25 04:08:48;;;;;;;20.57;9.03;;;13.10;99.90;;;;;;4973812;28;20496;-69
2022/09/25 04:11:16;;;;;;;16.40;7.17;;;13.00;99.90;;;;;;4969151;28;20493;-71
2022/09/25 04:13:43;;;;;;;19.60;6.43;;;13.00;99.90;;;;;;4972664;28;20492;-68
2022/09/25 04:16:11;;;;;;;15.43;8.40;;;13.10;99.90;;;;;;4970184;28;20884;-69
2022/09/25 04:18:40;;;;;;;16.20;7.00;;;13.10;99.90;;;;;;4971155;28;20834;-69
2022/09/25 04:21:09;;;;;;;11.00;7.73;;;13.10;99.90;;;;;;4972843;28;20490;-72
2022/09/25 04:23:36;;;;;;;7.93;6.67;;;13.00;99.90;;;;;;4971843;28;20467;-70
2022/09/25 04:26:04;;;;;;;19.37;8.03;;;13.00;99.90;;;;;;4975164;28;20465;-71
2022/09/25 04:28:31;;;;;;;21.13;8.13;;;13.00;99.90;;;;;;4974997;28;20469;-71
2022/09/25 04:30:58;;;;;;;11.40;7.67;;;13.00;99.90;;;;;;4974491;28;20486;-69
2022/09/25 04:36:10;;;;;;;14.23;8.20;;;13.00;99.90;;;;;;4973225;28;20632;-71
2022/09/25 04:38:37;;;;;;;12.63;8.57;;;13.00;99.90;;;;;;4971120;28;20480;-70
2022/09/25 04:41:04;;;;;;;15.80;9.00;;;13.00;99.90;;;;;;4977190;28;20577;-69
2022/09/25 04:43:32;;;;;;;9.70;5.40;;;13.00;99.90;;;;;;4973960;28;20469;-71
2022/09/25 04:46:01;;;;;;;16.50;7.10;;;12.90;99.90;;;;;;4974369;28;20991;-71
2022/09/25 04:48:28;;;;;;;16.47;7.03;;;12.90;99.90;;;;;;4972935;28;20475;-69
2022/09/25 04:50:57;;;;;;;12.60;7.90;;;12.90;99.90;;;;;;4974894;28;20970;-70
2022/09/25 04:53:26;;;;;;;16.53;8.00;;;12.90;99.90;;;;;;4976374;28;20518;-69
2022/09/25 04:55:54;;;;;;;13.53;8.03;;;12.90;99.90;;;;;;4975462;28;20580;-69
2022/09/25 04:58:21;;;;;;;12.30;7.90;;;12.90;99.90;;;;;;4973412;28;20532;-69
2022/09/25 05:00:48;;;;;;;17.67;8.33;;;12.90;99.90;;;;;;4973768;28;20509;-70
2022/09/25 05:03:15;;;;;;;12.93;7.93;;;12.90;99.90;;;;;;4978247;28;20474;-70
2022/09/25 05:05:42;;;;;;;11.13;7.63;;;12.90;99.90;;;;;;4976802;28;20480;-70
2022/09/25 05:08:10;;;;;;;14.93;7.97;;;12.90;99.90;;;;;;4969356;28;20522;-68
2022/09/25 05:10:39;;;;;;;13.00;7.60;;;12.90;99.90;;;;;;4970520;28;20548;-68
2022/09/25 05:13:08;;;;;;;6.57;4.50;;;12.90;99.90;;;;;;4970188;28;20478;-69
2022/09/25 05:15:35;;;;;;;13.77;7.67;;;12.90;99.90;;;;;;4968917;28;20786;-70
2022/09/25 05:18:03;;;;;;;14.50;7.53;;;12.90;99.90;;;;;;4971181;28;20470;-70
2022/09/25 05:20:29;;;;;;;13.73;8.40;;;12.90;99.90;;;;;;4972514;28;20469;-69
2022/09/25 05:22:57;;;;;;;13.40;8.57;;;12.90;99.90;;;;;;4971997;28;20973;-70
2022/09/25 05:25:24;;;;;;;21.07;7.17;;;12.90;99.90;;;;;;4970451;28;20473;-70
2022/09/25 05:27:52;;;;;;;14.67;6.50;;;12.90;99.90;;;;;;4970495;28;20541;-70
2022/09/25 05:30:19;;;;;;;6.43;5.70;;;12.90;99.90;;;;;;4972065;28;20838;-70
2022/09/25 05:32:49;;;;;;;12.30;5.87;;;12.90;99.90;;;;;;4970474;28;20976;-71
2022/09/25 05:35:18;;;;;;;17.07;7.27;;;12.90;99.90;;;;;;4969645;28;20492;-72
2022/09/25 05:37:44;;;;;;;14.30;7.10;;;12.90;99.90;;;;;;4969732;28;20784;-69
2022/09/25 05:40:15;;;;;;;18.03;7.73;;;12.90;99.90;;;;;;4971875;28;20469;-68
2022/09/25 05:42:43;;;;;;;10.37;6.60;;;12.90;99.90;;;;;;4962048;28;20481;-70
2022/09/25 05:45:12;;;;;;;9.63;6.45;;;12.80;99.90;;;;;;4968574;28;20962;-69
2022/09/25 05:47:39;;;;;;;11.47;6.10;;;12.90;99.90;;;;;;4971973;28;20208;-70
2022/09/25 05:50:07;;;;;;;16.17;8.07;;;12.90;99.90;;;;;;4970283;28;20498;-69
2022/09/25 05:52:34;;;;;;;11.27;7.30;;;12.90;99.90;;;;;;4970762;28;20602;-67
2022/09/25 05:55:02;;;;;;;12.23;6.17;;;12.90;99.90;;;;;;4969982;28;20478;-69
2022/09/25 05:57:31;;;;;;;16.23;7.73;;;12.90;99.90;;;;;;4968863;28;20485;-69
2022/09/25 05:59:57;;;;;;;9.93;7.53;;;12.90;99.90;;;;;;4970743;28;21342;-70
2022/09/25 06:02:25;;;;;;;17.43;7.87;;;12.90;99.90;;;;;;4967962;28;20583;-69
2022/09/25 06:04:52;;;;;;;12.50;5.77;;;12.90;99.90;;;;;;4969554;28;20461;-69
2022/09/25 06:07:19;;;;;;;9.57;5.47;;;12.90;99.90;;;;;;4966917;28;20493;-68
2022/09/25 06:09:46;;;;;;;14.07;6.70;;;13.00;99.90;;;;;;4966546;28;20475;-69
2022/09/25 06:12:12;;;;;;;14.43;7.97;;;13.00;99.90;;;;;;4966381;28;20489;-70
2022/09/25 06:14:39;;;;;;;8.87;6.30;;;13.00;99.90;;;;;;4968127;28;20838;-69
2022/09/25 06:17:07;;;;;;;18.33;6.60;;;13.00;99.90;;;;;;4966636;28;20470;-71
2022/09/25 06:19:35;;;;;;;13.80;7.40;;;13.10;99.90;;;;;;4969654;28;20569;-68
2022/09/25 06:22:02;;;;;;;18.00;8.07;;;13.10;99.90;;;;;;4971299;28;20485;-70
2022/09/25 06:24:28;;;;;;;17.60;7.87;;;13.10;99.90;;;;;;4969139;28;20485;-69
2022/09/25 06:26:55;;;;;;;11.83;6.97;;;13.10;99.90;;;;;;4966394;28;20473;-69
2022/09/25 06:29:22;;;;;;;13.47;6.30;;;13.20;99.90;;;;;;4968011;28;20569;-70
2022/09/25 06:31:49;;;;;;;12.90;7.33;;;13.10;99.90;;;;;;4970307;28;20497;-68
2022/09/25 06:34:16;;;;;;;11.43;4.93;;;13.20;99.90;;;;;;4970952;28;20557;-71
2022/09/25 06:36:44;;;;;;;17.60;6.50;;;13.20;99.90;;;;;;4971025;28;20466;-70
2022/09/25 06:39:10;;;;;;;10.17;5.43;;;13.10;99.90;;;;;;4969434;28;20873;-69
2022/09/25 06:41:38;;;;;;;14.47;5.67;;;13.20;99.90;;;;;;4968954;28;20490;-69
2022/09/25 06:44:05;;;;;;;14.97;5.80;;;13.20;99.90;;;;;;4968578;28;20474;-70
2022/09/25 06:46:32;;;;;;;15.63;5.40;;;13.20;99.90;;;;;;4970478;28;20474;-72
2022/09/25 06:48:59;;;;;;;8.50;6.07;;;13.20;99.90;;;;;;4968500;28;20474;-68
2022/09/25 06:51:27;;;;;;;8.03;4.90;;;13.20;99.90;;;;;;4969638;28;20497;-71
2022/09/25 06:53:55;;;;;;;10.47;5.60;;;13.30;99.90;;;;;;4969804;28;20472;-71
2022/09/25 06:56:22;;;;;;;10.30;4.33;;;13.30;99.90;;;;;;4969938;28;20490;-70
2022/09/25 06:58:49;;;;;;;4.10;3.70;;;13.30;99.90;;;;;;4968584;28;21485;-70
2022/09/25 07:01:16;;;;;;;7.87;4.73;;;13.30;99.90;;;;;;4969121;28;20502;-71
2022/09/25 07:03:45;;;;;;;8.65;5.03;;;13.30;99.90;;;;;;4966051;28;20477;-70
2022/09/25 07:06:14;;;;;;;16.13;6.57;;;13.30;99.90;;;;;;4969980;28;20216;-69
2022/09/25 07:08:42;;;;;;;5.53;4.50;;;13.30;99.90;;;;;;4971785;28;20473;-70
2022/09/25 07:11:13;;;;;;;6.90;4.93;;;13.30;99.90;;;;;;4969257;28;20553;-70
2022/09/25 07:13:40;;;;;;;6.10;5.27;;;13.40;99.90;;;;;;4963363;28;20471;-70
2022/09/25 07:16:11;;;;;;;13.17;5.20;;;13.40;99.90;;;;;;4970754;28;20560;-70
2022/09/25 07:18:37;;;;;;;7.30;6.17;;;13.40;99.90;;;;;;4967812;28;20470;-71
2022/09/25 07:21:06;;;;;;;13.63;5.60;;;13.40;99.90;;;;;;4969090;28;20488;-68
2022/09/25 07:23:34;;;;;;;11.60;6.53;;;13.50;99.90;;;;;;4970642;28;20488;-70
2022/09/25 07:26:06;;;;;;;9.20;6.23;;;13.50;99.90;;;;;;4971349;28;21043;-70
2022/09/25 07:28:35;;;;;;;15.70;6.13;;;13.50;99.90;;;;;;4969194;28;20476;-71
2022/09/25 07:31:11;;;;;;;7.83;6.23;;;13.50;99.90;;;;;;4967965;28;20517;-70
2022/09/25 07:33:37;;;;;;;10.00;5.20;;;13.60;99.90;;;;;;4968747;28;21304;-69
2022/09/25 07:36:05;;;;;;;5.40;3.93;;;13.60;99.90;;;;;;4969796;28;20996;-70
2022/09/25 07:38:33;;;;;;;4.30;3.60;;;13.60;99.90;;;;;;4970287;28;20502;-70
2022/09/25 07:40:59;;;;;;;8.13;5.70;;;13.60;99.90;;;;;;4971097;28;20501;-71
2022/09/25 07:43:26;;;;;;;10.60;7.30;;;13.70;99.90;;;;;;4971799;28;20494;-70
2022/09/25 07:45:54;;;;;;;7.83;5.30;;;13.70;99.90;;;;;;4970530;28;20474;-70
2022/09/25 07:48:22;;;;;;;5.60;5.10;;;13.70;99.90;;;;;;4971032;28;20471;-69
2022/09/25 07:50:49;;;;;;;5.33;4.77;;;13.70;99.90;;;;;;4970775;28;20542;-70
2022/09/25 07:53:16;;;;;;;7.30;5.90;;;13.70;99.90;;;;;;4968838;28;20475;-71
2022/09/25 07:55:43;;;;;;;5.83;5.00;;;13.80;99.90;;;;;;4973132;28;20559;-70
2022/09/25 07:58:10;;;;;;;5.77;5.17;;;13.90;99.90;;;;;;4973010;28;20993;-70
2022/09/25 08:00:36;;;;;;;12.27;4.47;;;13.90;99.90;;;;;;4973649;28;20505;-71
2022/09/25 08:03:05;;;;;;;5.37;4.87;;;13.90;99.90;;;;;;4975184;28;20474;-70
2022/09/25 08:05:31;;;;;;;8.57;5.83;;;14.00;99.90;;;;;;4975337;28;20832;-71
2022/09/25 08:07:58;;;;;;;3.33;3.13;;;14.00;99.90;;;;;;4974102;28;20542;-69
2022/09/25 08:10:25;;;;;;;4.03;3.73;;;12.70;99.90;;;;;;4974883;28;20474;-73
2022/09/25 08:12:51;;;;;;;3.33;3.13;;;14.10;99.90;;;;;;4974869;28;20944;-69
2022/09/25 08:15:18;;;;;;;6.70;4.33;;;14.10;99.90;;;;;;4976424;28;20459;-71
2022/09/25 08:17:45;;;;;;;9.53;4.37;;;14.10;99.90;;;;;;4973686;28;20501;-69
2022/09/25 08:20:13;;;;;;;9.87;4.10;;;14.10;99.90;;;;;;4976122;28;20459;-68
2022/09/25 08:22:40;;;;;;;4.30;3.90;;;14.10;99.90;;;;;;4972440;28;20462;-70
2022/09/25 08:25:07;;;;;;;2.87;2.67;;;14.00;99.90;;;;;;4978451;28;20486;-69
2022/09/25 08:27:39;;;;;;;3.97;3.57;;;14.00;99.90;;;;;;4975647;28;20986;-69
2022/09/25 08:30:07;;;;;;;4.60;4.20;;;14.00;99.90;;;;;;4976864;28;20471;-69
2022/09/25 08:32:35;;;;;;;5.20;4.10;;;14.10;99.90;;;;;;4976441;28;20254;-69
2022/09/25 08:35:02;;;;;;;5.13;4.60;;;14.10;99.90;;;;;;4979723;28;20825;-68
2022/09/25 08:37:30;;;;;;;8.30;4.63;;;14.10;99.90;;;;;;4975845;28;20479;-69
2022/09/25 08:39:58;;;;;;;4.87;4.07;;;14.20;99.90;;;;;;4980328;28;20471;-70
2022/09/25 08:42:29;;;;;;;3.23;2.67;;;14.20;99.90;;;;;;4975335;28;20493;-70
2022/09/25 08:50:24;;;;;;;6.17;4.43;;;14.20;99.90;;;;;;4974962;28;20574;-70
2022/09/25 08:53:00;;;;;;;4.33;3.93;;;14.30;99.90;;;;;;4975752;28;20581;-71
2022/09/25 08:56:13;;;;;;;3.90;3.67;;;14.30;99.90;;;;;;4974570;28;20569;-70
2022/09/25 08:58:23;;;;;;;4.73;3.57;;;14.30;99.90;;;;;;4972792;28;20554;-71
2022/09/25 09:00:51;;;;;;;8.57;5.83;;;14.40;99.90;;;;;;4972850;28;20496;-71
2022/09/25 09:03:18;;;;;;;3.90;3.60;;;14.40;99.90;;;;;;4973070;28;20471;-70
2022/09/25 09:05:47;;;;;;;4.30;4.00;;;14.50;99.90;;;;;;4972921;28;20560;-70
2022/09/25 09:08:24;;;;;;;5.50;5.10;;;14.50;99.90;;;;;;4971583;28;20473;-69
2022/09/25 09:10:54;;;;;;;4.50;3.57;;;14.70;99.90;;;;;;4971316;28;20586;-70
2022/09/25 09:13:27;;;;;;;5.37;5.00;;;14.70;99.90;;;;;;4975061;28;20468;-71
2022/09/25 09:15:59;;;;;;;3.47;3.27;;;14.70;99.90;;;;;;4975473;28;20485;-70
2022/09/25 09:18:28;;;;;;;4.10;3.70;;;14.80;99.90;;;;;;4972556;28;20475;-70
2022/09/25 09:20:57;;;;;;;4.80;3.63;;;14.80;99.90;;;;;;4974575;28;20484;-71
2022/09/25 09:23:33;;;;;;;4.23;3.23;;;14.90;99.90;;;;;;4972533;28;20562;-71
2022/09/25 09:26:02;;;;;;;6.90;4.07;;;15.10;99.90;;;;;;4971801;28;20472;-70
2022/09/25 09:28:54;;;;;;;4.10;3.90;;;15.10;99.90;;;;;;4971543;28;20475;-68
2022/09/25 09:31:28;;;;;;;7.07;4.30;;;15.10;99.90;;;;;;4970199;28;20542;-69
2022/09/25 09:34:03;;;;;;;3.53;3.40;;;15.10;99.90;;;;;;4973972;28;20471;-70
2022/09/25 09:36:36;;;;;;;3.87;3.67;;;15.20;99.90;;;;;;4970946;28;20467;-70
2022/09/25 09:39:15;;;;;;;3.77;3.47;;;15.10;99.90;;;;;;4967604;28;20479;-69
2022/09/25 09:41:57;;;;;;;2.90;2.70;;;15.10;99.90;;;;;;4966042;28;20507;-68
2022/09/25 09:44:38;;;;;;;5.13;4.63;;;15.00;99.90;;;;;;4974043;28;20527;-68
2022/09/25 09:47:17;;;;;;;2.80;2.60;;;15.00;99.90;;;;;;4971462;28;20478;-69
2022/09/25 09:49:49;;;;;;;4.23;3.93;;;15.00;99.90;;;;;;4966835;28;21034;-68
2022/09/25 09:52:20;;;;;;;2.67;2.50;;;15.10;99.90;;;;;;4973560;28;22000;-70
2022/09/25 09:54:52;;;;;;;4.10;3.80;;;15.20;99.90;;;;;;4971105;28;20675;-70
2022/09/25 09:57:24;;;;;;;4.90;4.40;;;15.30;99.90;;;;;;4971493;28;20472;-69
2022/09/25 09:59:56;;;;;;;4.33;4.03;;;15.40;99.90;;;;;;4972244;28;20469;-72
2022/09/25 10:02:32;;;;;;;4.23;3.90;;;15.60;99.90;;;;;;4973113;28;20519;-71
2022/09/25 10:05:02;;;;;;;5.43;4.97;;;15.50;99.90;;;;;;4970725;28;20478;-71
2022/09/25 10:07:31;;;;;;;5.20;4.10;;;15.60;99.90;;;;;;4968964;28;20472;-70
2022/09/25 10:09:59;;;;;;;5.83;5.07;;;15.60;99.90;;;;;;4973439;28;20469;-69
2022/09/25 10:12:30;;;;;;;3.83;3.50;;;15.60;99.90;;;;;;4972126;28;20493;-70
2022/09/25 10:15:01;;;;;;;4.87;4.53;;;15.60;99.90;;;;;;4971985;28;20827;-70
2022/09/25 10:17:29;;;;;;;4.93;4.40;;;15.50;99.90;;;;;;4969301;28;20468;-71
2022/09/25 10:19:59;;;;;;;4.50;4.07;;;15.50;99.90;;;;;;4971758;28;20465;-71
2022/09/25 10:22:27;;;;;;;6.60;5.00;;;15.40;99.90;;;;;;4972381;28;20494;-72
2022/09/25 10:24:57;;;;;;;4.57;4.17;;;15.40;99.90;;;;;;4970402;28;20543;-71
2022/09/25 10:27:31;;;;;;;3.80;3.50;;;15.40;99.90;;;;;;4964208;28;20480;-70
2022/09/25 10:30:17;;;;;;;3.07;2.87;;;15.30;99.90;;;;;;4965800;28;20521;-69
2022/09/25 10:32:55;;;;;;;5.17;4.70;;;15.30;99.90;;;;;;4964092;28;20509;-68
2022/09/25 10:35:25;;;;;;;3.53;3.30;;;15.30;99.90;;;;;;4971823;28;20532;-68
2022/09/25 10:37:54;;;;;;;4.57;4.23;;;15.40;99.90;;;;;;4965262;28;20530;-69
2022/09/25 10:40:27;;;;;;;3.70;3.50;;;15.40;99.90;;;;;;4967254;28;20468;-69
2022/09/25 10:43:05;;;;;;;4.00;3.77;;;15.50;99.90;;;;;;4975499;28;20468;-69
2022/09/25 10:45:34;;;;;;;4.70;4.33;;;15.60;99.90;;;;;;4970646;28;20472;-68
2022/09/25 10:51:06;;;;;;;5.97;4.10;;;15.60;99.90;;;;;;4968172;28;20845;-69
2022/09/25 10:53:33;;;;;;;5.20;4.70;;;15.60;99.90;;;;;;4971963;28;20491;-68
2022/09/25 10:56:04;;;;;;;3.83;3.60;;;15.50;99.90;;;;;;4972564;28;20964;-69
2022/09/25 10:58:37;;;;;;;7.10;5.07;;;15.50;99.90;;;;;;4969580;28;20509;-68
2022/09/25 11:01:06;;;;;;;3.50;3.30;;;15.30;99.90;;;;;;4969198;28;20507;-68
2022/09/25 11:03:39;;;;;;;4.60;3.70;;;15.40;99.90;;;;;;4979271;28;20518;-69
2022/09/25 11:06:08;;;;;;;4.60;4.30;;;15.30;99.90;;;;;;4971802;28;20533;-68
2022/09/25 11:08:38;;;;;;;5.10;4.47;;;15.20;99.90;;;;;;4967950;28;20488;-68
2022/09/25 11:11:08;;;;;;;4.77;4.27;;;15.10;99.90;;;;;;4971990;28;20491;-69
2022/09/25 11:13:43;;;;;;;4.77;4.47;;;15.00;99.90;;;;;;4970452;28;20498;-68
2022/09/25 11:16:10;;;;;;;8.47;5.20;;;15.10;99.90;;;;;;4972078;28;20463;-70
2022/09/25 11:18:40;;;;;;;3.33;3.13;;;14.80;99.90;;;;;;4969711;28;20854;-70
2022/09/25 11:21:18;;;;;;;3.17;2.97;;;14.80;99.90;;;;;;4963613;28;20489;-70
2022/09/25 11:24:04;;;;;;;2.80;2.60;;;14.70;99.90;;;;;;4965310;28;20474;-69
2022/09/25 11:26:34;;;;;;;2.67;2.50;;;14.30;99.90;;;;;;4968142;28;20602;-69
2022/09/25 11:29:11;;;;;;;1.93;1.83;;;14.70;99.90;;;;;;4971779;28;20971;-68
2022/09/25 11:31:42;;;;;;;1.83;1.83;;;14.60;99.90;;;;;;4965825;28;20497;-68
2022/09/25 11:34:17;;;;;;;3.03;2.90;;;14.50;99.90;;;;;;4974974;28;20465;-70
2022/09/25 11:36:48;;;;;;;1.77;1.67;;;14.50;99.90;;;;;;4970361;28;20537;-70
2022/09/25 11:42:14;;;;;;;1.97;1.90;;;14.30;99.90;;;;;;4971931;28;20556;-68
2022/09/25 11:44:56;;;;;;;1.60;1.50;;;14.30;99.90;;;;;;4972849;28;20521;-70
2022/09/25 11:47:28;;;;;;;1.10;1.10;;;14.20;99.90;;;;;;4970604;28;20532;-69
2022/09/25 11:49:58;;;;;;;0.90;0.90;;;14.10;99.90;;;;;;4968250;28;20488;-71
2022/09/25 11:52:39;;;;;;;2.50;2.40;;;14.10;99.90;;;;;;4969646;28;20638;-71
2022/09/25 11:55:35;;;;;;;1.47;1.47;;;14.00;99.90;;;;;;4971306;28;20560;-68
2022/09/25 11:58:16;;;;;;;2.27;2.13;;;13.90;99.90;;;;;;4963467;28;20502;-69
2022/09/25 12:00:54;;;;;;;1.80;1.70;;;13.80;99.90;;;;;;4970216;28;20520;-70
2022/09/25 12:03:36;;;;;;;3.20;3.00;;;13.90;99.90;;;;;;4967661;28;20793;-70
2022/09/25 12:06:20;;;;;;;2.70;2.60;;;13.90;99.90;;;;;;4972089;28;20814;-70
2022/09/25 12:08:58;;;;;;;2.50;2.40;;;13.90;99.90;;;;;;4970090;28;20561;-69
2022/09/25 12:11:44;;;;;;;4.70;3.60;;;13.90;99.90;;;;;;4971277;28;20497;-71
2022/09/25 12:14:19;;;;;;;2.77;2.67;;;13.80;99.90;;;;;;4973072;28;20508;-69
2022/09/25 12:16:56;;;;;;;2.50;2.40;;;13.90;99.90;;;;;;4970172;28;20476;-72
2022/09/25 12:19:34;;;;;;;2.80;2.70;;;13.90;99.90;;;;;;4970240;28;20488;-72
2022/09/25 12:22:07;;;;;;;4.57;2.83;;;13.80;99.90;;;;;;4971635;28;20508;-70
2022/09/25 12:24:51;;;;;;;2.60;2.50;;;13.70;99.90;;;;;;4972382;28;21782;-70
2022/09/25 12:27:27;;;;;;;2.97;2.77;;;13.60;99.90;;;;;;4962359;28;20489;-70
2022/09/25 12:30:10;;;;;;;4.60;3.90;;;13.60;99.90;;;;;;4969664;28;20477;-70
2022/09/25 12:32:57;;;;;;;3.30;3.10;;;13.50;99.90;;;;;;4968633;28;20493;-68
2022/09/25 12:35:35;;;;;;;2.60;2.40;;;13.50;99.90;;;;;;4969092;28;20470;-70
2022/09/25 12:38:05;;;;;;;3.17;2.97;;;13.50;99.90;;;;;;4969964;28;20473;-68
2022/09/25 12:40:42;;;;;;;3.33;3.13;;;13.60;99.90;;;;;;4962572;28;20471;-70
2022/09/25 12:43:15;;;;;;;3.57;3.27;;;13.60;99.90;;;;;;4967269;28;20470;-68
2022/09/25 12:45:48;;;;;;;3.10;2.80;;;13.70;99.90;;;;;;4965283;28;20549;-69
2022/09/25 12:48:22;;;;;;;2.63;2.53;;;13.70;99.90;;;;;;4973884;28;20492;-70
2022/09/25 12:50:55;;;;;;;5.80;4.80;;;13.70;99.90;;;;;;4973440;28;20509;-68
2022/09/25 12:53:27;;;;;;;4.53;4.20;;;13.80;99.90;;;;;;4972971;28;20679;-69
2022/09/25 12:55:58;;;;;;;3.87;3.57;;;13.70;99.90;;;;;;4976172;28;20462;-69
2022/09/25 12:58:39;;;;;;;3.70;3.40;;;13.80;99.90;;;;;;4973547;28;20528;-71
2022/09/25 13:01:12;;;;;;;7.17;3.40;;;13.80;99.90;;;;;;4963795;28;20493;-71
2022/09/25 13:03:47;;;;;;;2.70;2.60;;;13.80;99.90;;;;;;4974461;28;20932;-70
2022/09/25 13:06:19;;;;;;;6.43;2.20;;;13.80;99.90;;;;;;4975308;28;20549;-70
2022/09/25 13:08:51;;;;;;;4.10;2.97;;;13.80;99.90;;;;;;4973002;28;20467;-70
2022/09/25 13:11:28;;;;;;;2.10;2.00;;;13.70;99.90;;;;;;4974080;28;20481;-70
2022/09/25 13:13:56;;;;;;;3.40;3.13;;;13.70;99.90;;;;;;4976333;28;20488;-71
2022/09/25 13:16:23;;;;;;;2.87;2.77;;;13.70;99.90;;;;;;4977713;28;20489;-71
2022/09/25 13:19:11;;;;;;;3.03;2.33;;;13.60;99.90;;;;;;4977775;28;20472;-69
2022/09/25 13:21:40;;;;;;;2.57;2.37;;;13.70;99.90;;;;;;4978500;28;20490;-70
2022/09/25 13:24:14;;;;;;;3.80;2.30;;;13.70;99.90;;;;;;4977592;28;20465;-72
2022/09/25 13:26:47;;;;;;;2.03;1.83;;;13.70;99.90;;;;;;4956344;28;20463;-69
2022/09/25 13:29:29;;;;;;;1.97;1.87;;;13.80;99.90;;;;;;4968790;28;20528;-70
2022/09/25 13:32:05;;;;;;;2.00;1.93;;;13.90;99.90;;;;;;4974455;28;20538;-69
2022/09/25 13:34:38;;;;;;;2.17;1.80;;;14.00;99.90;;;;;;4973814;28;20555;-70
2022/09/25 13:37:08;;;;;;;2.47;2.37;;;14.10;99.90;;;;;;4975157;28;20599;-69
2022/09/25 13:42:29;;;;;;;2.50;2.33;;;14.40;99.90;;;;;;4975635;28;20503;-72
2022/09/25 13:45:07;;;;;;;3.83;2.40;;;14.50;99.90;;;;;;4978743;28;20471;-70
2022/09/25 13:47:56;;;;;;;2.93;2.50;;;14.40;99.90;;;;;;4981567;28;20596;-69
2022/09/25 13:50:41;;;;;;;1.80;1.80;;;14.30;99.90;;;;;;4981086;28;20460;-70
2022/09/25 13:53:28;;;;;;;5.60;1.73;;;14.30;99.90;;;;;;4979310;28;20536;-71
2022/09/25 13:56:22;;;;;;;5.50;2.00;;;14.20;99.90;;;;;;4980731;28;20998;-71
2022/09/25 13:59:27;;;;;;;3.40;2.73;;;14.10;99.90;;;;;;4971349;28;20466;-69
2022/09/25 14:01:57;;;;;;;1.43;1.43;;;14.10;99.90;;;;;;4978789;28;20490;-72
2022/09/25 14:04:33;;;;;;;1.53;1.53;;;14.30;99.90;;;;;;4977462;28;20478;-69
2022/09/25 14:07:20;;;;;;;2.00;1.77;;;14.50;99.90;;;;;;4982474;28;20530;-70
2022/09/25 14:09:52;;;;;;;2.03;1.90;;;14.60;99.90;;;;;;4973147;28;20493;-71
2022/09/25 14:12:35;;;;;;;2.47;1.23;;;14.60;99.90;;;;;;4975850;28;20501;-71
2022/09/25 14:15:05;;;;;;;1.30;1.20;;;14.70;99.90;;;;;;4972398;28;20914;-71
2022/09/25 14:17:32;;;;;;;1.20;1.20;;;14.60;99.90;;;;;;4972023;28;20475;-69
2022/09/25 14:20:05;;;;;;;2.50;0.90;;;14.50;99.90;;;;;;4971753;28;20562;-69
2022/09/25 14:22:43;;;;;;;1.13;1.13;;;14.40;99.90;;;;;;4970784;28;20864;-70
2022/09/25 14:25:26;;;;;;;1.40;1.40;;;14.30;99.90;;;;;;4972251;28;20465;-70
2022/09/25 14:27:53;;;;;;;1.50;1.40;;;14.20;99.90;;;;;;4963774;28;20557;-71
2022/09/25 14:30:20;;;;;;;1.30;1.30;;;14.10;99.90;;;;;;4970435;28;20502;-68
2022/09/25 14:33:03;;;;;;;1.60;1.50;;;14.10;99.90;;;;;;4969043;28;20490;-70
2022/09/25 14:35:35;;;;;;;1.37;1.27;;;14.10;99.90;;;;;;4971439;28;20467;-70
2022/09/25 14:38:17;;;;;;;1.63;1.63;;;14.20;99.90;;;;;;4970647;28;20546;-67
2022/09/25 14:41:00;;;;;;;1.37;1.37;;;14.20;99.90;;;;;;4966906;28;20494;-68
2022/09/25 14:43:49;;;;;;;1.27;1.27;;;14.20;99.90;;;;;;4968260;28;20467;-68
2022/09/25 14:46:18;;;;;;;1.00;1.00;;;14.20;99.90;;;;;;4971639;28;20473;-68
2022/09/25 14:48:50;;;;;;;0.97;0.97;;;14.20;99.90;;;;;;4972220;28;20509;-71
2022/09/25 14:51:25;;;;;;;0.70;0.70;;;14.10;99.90;;;;;;4971012;28;20493;-70
2022/09/25 14:54:01;;;;;;;1.00;1.00;;;14.10;99.90;;;;;;4964037;28;20565;-71
2022/09/25 14:56:34;;;;;;;0.90;0.90;;;14.10;99.90;;;;;;4972295;28;20554;-72
2022/09/25 14:59:06;;;;;;;1.20;1.20;;;14.20;99.90;;;;;;4970045;28;20467;-68
2022/09/25 15:01:33;;;;;;;1.17;1.17;;;14.20;99.90;;;;;;4968562;28;20498;-69
2022/09/25 15:04:02;;;;;;;2.87;1.33;;;14.20;99.90;;;;;;4970258;28;20570;-70
2022/09/25 15:06:31;;;;;;;0.93;0.93;;;14.30;99.90;;;;;;4970328;28;20472;-70
2022/09/25 15:09:01;;;;;;;1.80;1.80;;;14.40;99.90;;;;;;4975786;28;20496;-72
2022/09/25 15:11:41;;;;;;;1.20;1.10;;;14.50;99.90;;;;;;4973128;28;20478;-70
2022/09/25 15:14:12;;;;;;;0.90;0.90;;;14.60;99.90;;;;;;4974747;28;20493;-70
2022/09/25 15:19:28;;;;;;;1.40;1.13;;;14.60;99.90;;;;;;4974632;28;20822;-69
2022/09/25 15:21:55;;;;;;;2.10;2.00;;;14.60;99.90;;;;;;4974527;28;20491;-70
2022/09/25 15:24:26;;;;;;;5.43;4.97;;;14.50;99.90;;;;;;4973784;28;20474;-69
2022/09/25 15:27:01;;;;;;;7.30;4.73;;;14.40;99.90;;;;;;4971531;28;20883;-70
2022/09/25 15:29:28;;;;;;;4.60;4.37;;;14.40;99.90;;;;;;4975951;28;20466;-69
2022/09/25 15:31:55;;;;;;;1.60;1.60;;;14.30;99.90;;;;;;4974244;28;21010;-69
2022/09/25 15:34:24;;;;;;;3.47;1.60;;;14.30;99.90;;;;;;4974011;28;20483;-71
2022/09/25 15:36:51;;;;;;;0.80;0.70;;;14.30;99.90;;;;;;4971685;28;20482;-68
2022/09/25 15:39:24;;;;;;;0.57;0.57;;;14.30;99.90;;;;;;4975314;28;20951;-69
2022/09/25 15:41:52;;;;;;;0.63;0.63;;;14.30;99.90;;;;;;4973398;28;20509;-70
2022/09/25 15:44:21;;;;;;;10.20;0.87;;;14.30;99.90;;;;;;4973861;28;20949;-69
2022/09/25 15:46:50;;;;;;;0.90;0.90;;;14.20;99.90;;;;;;4971550;28;20469;-70
2022/09/25 15:49:21;;;;;;;2.30;1.13;;;14.20;99.90;;;;;;4972848;28;20533;-70
2022/09/25 15:51:52;;;;;;;1.00;1.00;;;14.10;99.90;;;;;;4974451;28;20530;-70
2022/09/25 15:54:35;;;;;;;1.33;1.23;;;14.10;99.90;;;;;;4974444;28;20496;-70
2022/09/25 15:57:05;;;;;;;3.20;1.50;;;14.10;99.90;;;;;;4973513;28;20481;-70
2022/09/25 15:59:35;;;;;;;0.90;0.90;;;14.10;99.90;;;;;;4973987;28;20473;-71
2022/09/25 16:05:01;;;;;;;1.17;0.83;;;14.00;99.90;;;;;;4973701;28;20955;-69
2022/09/25 16:07:32;;;;;;;1.13;1.13;;;14.00;99.90;;;;;;4971271;28;20465;-70
2022/09/25 16:10:03;;;;;;;1.70;1.60;;;14.00;99.90;;;;;;4974136;28;20462;-71
2022/09/25 16:12:34;;;;;;;3.30;1.13;;;13.90;99.90;;;;;;4973371;28;20485;-71
2022/09/25 16:15:39;;;;;;;1.23;1.23;;;13.90;99.90;;;;;;4973247;28;20522;-71
2022/09/25 16:18:33;;;;;;;1.83;1.73;;;13.90;99.90;;;;;;4967708;28;20558;-69
2022/09/25 16:21:18;;;;;;;1.90;1.80;;;13.90;99.90;;;;;;4967782;28;20487;-69
2022/09/25 16:23:51;;;;;;;1.40;1.40;;;13.80;99.90;;;;;;4973278;28;20476;-70
2022/09/25 16:26:22;;;;;;;1.00;1.00;;;13.70;99.90;;;;;;4971567;28;20829;-68
2022/09/25 16:28:57;;;;;;;1.90;1.70;;;13.70;99.90;;;;;;4971770;28;20465;-70
2022/09/25 16:31:24;;;;;;;1.10;1.10;;;13.60;99.90;;;;;;4973069;28;20498;-69
2022/09/25 16:33:55;;;;;;;0.83;0.83;;;13.50;99.90;;;;;;4974804;28;20567;-70
2022/09/25 16:36:22;;;;;;;1.67;1.60;;;13.50;99.90;;;;;;4968210;28;20471;-70
2022/09/25 16:39:20;;;;;;;1.70;1.13;;;13.40;99.90;;;;;;4974266;28;20462;-72
2022/09/25 16:41:49;;;;;;;2.00;1.77;;;13.40;99.90;;;;;;4968941;28;20483;-71
2022/09/25 16:44:19;;;;;;;1.17;1.17;;;13.30;99.90;;;;;;4975409;28;20480;-71
2022/09/25 16:47:03;;;;;;;1.60;1.60;;;13.30;99.90;;;;;;4975480;28;20496;-71
2022/09/25 16:49:32;;;;;;;2.20;2.00;;;13.20;99.90;;;;;;4975531;28;20469;-70
2022/09/25 16:52:04;;;;;;;2.63;2.27;;;13.10;99.90;;;;;;4976675;28;21022;-71
2022/09/25 16:54:32;;;;;;;2.50;2.40;;;13.10;99.90;;;;;;4974292;28;20512;-71
2022/09/25 16:57:01;;;;;;;2.87;2.30;;;13.00;99.90;;;;;;4966174;28;20479;-70
2022/09/25 16:59:28;;;;;;;2.77;2.40;;;13.00;99.90;;;;;;4977000;28;21027;-70
2022/09/25 17:02:00;;;;;;;4.57;2.00;;;12.90;99.90;;;;;;4974897;28;20538;-69
2022/09/25 17:04:37;;;;;;;1.85;1.75;;;12.80;99.90;;;;;;4979897;28;20538;-70
2022/09/25 17:07:04;;;;;;;2.97;2.57;;;12.80;99.90;;;;;;4986922;28;20801;-69
2022/09/25 17:09:34;;;;;;;2.63;2.50;;;12.80;99.90;;;;;;4977594;28;20479;-70
2022/09/25 17:12:06;;;;;;;3.23;1.93;;;12.70;99.90;;;;;;4979837;28;20490;-69
2022/09/25 17:14:33;;;;;;;3.00;2.80;;;12.70;99.90;;;;;;4980399;28;20493;-69
2022/09/25 17:17:01;;;;;;;3.60;3.35;;;12.70;99.90;;;;;;4985506;28;20459;-72
2022/09/25 17:19:28;;;;;;;3.93;3.67;;;12.60;99.90;;;;;;4976722;28;20224;-71
2022/09/25 17:21:55;;;;;;;2.85;2.75;;;12.60;99.90;;;;;;4981520;28;20477;-70
2022/09/25 17:24:25;;;;;;;3.95;3.65;;;12.60;99.90;;;;;;4980119;28;20262;-71
2022/09/25 17:26:56;;;;;;;3.03;2.93;;;12.50;99.90;;;;;;4984623;28;20206;-71
2022/09/25 17:29:25;;;;;;;3.27;3.07;;;12.50;99.90;;;;;;4982615;28;20475;-71
2022/09/25 17:31:53;;;;;;;6.90;5.15;;;12.50;99.90;;;;;;4978009;28;20496;-71